Time;durP1;ratioP1;P1;durP2;ratioP2;P2;SDS_P1;SDS_P2;PMS_P1;PMS_P2;Temp;Humidity;BMP_temperature;BMP_pressure;BME280_temperature;BME280_humidity;BME280_pressure;Samples;Min_cycle;Max_cycle;Signal;HPM_P1;HPM_P2
2023/03/30 00:00:55;;;;;;;10.90;4.70;;;11.00;99.90;;;;;;5034934;28;20480;-77
2023/03/30 00:03:22;;;;;;;11.13;4.20;;;10.90;99.90;;;;;;5050446;28;20473;-77
2023/03/30 00:05:51;;;;;;;9.57;4.13;;;10.90;99.90;;;;;;5027321;28;21012;-77
2023/03/30 00:08:19;;;;;;;7.73;4.90;;;10.70;99.90;;;;;;5034529;28;20646;-78
2023/03/30 00:10:48;;;;;;;13.50;4.67;;;10.70;99.90;;;;;;5043483;28;20443;-78
2023/03/30 00:13:16;;;;;;;6.57;5.83;;;10.60;99.90;;;;;;5054292;28;20540;-77
2023/03/30 00:15:43;;;;;;;9.53;5.77;;;10.60;99.90;;;;;;5053005;28;20451;-78
2023/03/30 00:18:10;;;;;;;11.07;7.30;;;10.50;99.90;;;;;;5054506;28;20471;-77
2023/03/30 00:20:41;;;;;;;8.13;7.33;;;10.60;99.90;;;;;;5045180;28;20819;-76
2023/03/30 00:23:08;;;;;;;10.57;8.60;;;10.60;99.90;;;;;;5034326;28;20452;-77
2023/03/30 00:25:35;;;;;;;9.30;8.50;;;10.60;99.90;;;;;;5042562;28;20457;-78
2023/03/30 00:28:03;;;;;;;12.70;11.60;;;10.40;99.90;;;;;;5054425;28;20529;-77
2023/03/30 00:30:31;;;;;;;16.43;15.07;;;10.30;99.90;;;;;;5047305;28;20459;-77
2023/03/30 00:32:57;;;;;;;21.33;19.77;;;10.20;99.90;;;;;;5034467;28;20674;-77
2023/03/30 00:35:25;;;;;;;25.90;24.40;;;10.20;99.90;;;;;;5039941;28;20530;-77
2023/03/30 00:37:52;;;;;;;29.90;28.20;;;10.10;99.90;;;;;;5054229;28;20484;-77
2023/03/30 00:40:21;;;;;;;26.10;24.60;;;10.10;99.90;;;;;;5049415;28;20459;-77
2023/03/30 00:42:49;;;;;;;24.77;21.83;;;10.10;99.90;;;;;;5033953;28;20476;-77
2023/03/30 00:45:25;;;;;;;17.00;15.60;;;10.10;99.90;;;;;;5034548;28;20451;-77
2023/03/30 00:47:58;;;;;;;12.33;10.97;;;10.40;99.90;;;;;;5033787;28;20503;-77
2023/03/30 00:50:33;;;;;;;14.10;12.60;;;10.40;99.90;;;;;;5020526;28;20485;-77
2023/03/30 00:53:05;;;;;;;14.90;13.60;;;10.30;99.90;;;;;;5054105;28;20962;-77
2023/03/30 00:55:36;;;;;;;16.20;12.90;;;10.50;99.90;;;;;;5052412;28;20447;-77
2023/03/30 00:58:03;;;;;;;12.43;10.10;;;10.40;99.90;;;;;;5053530;28;20482;-77
2023/03/30 01:00:33;;;;;;;11.13;5.83;;;10.60;99.90;;;;;;5046831;28;20475;-77
2023/03/30 01:03:05;;;;;;;11.90;4.83;;;11.00;99.90;;;;;;5033508;28;21086;-77
2023/03/30 01:05:32;;;;;;;13.77;4.27;;;11.30;99.90;;;;;;5040511;28;20457;-77
2023/03/30 01:07:59;;;;;;;11.67;3.90;;;11.30;99.90;;;;;;5053844;28;20479;-77
2023/03/30 01:10:26;;;;;;;11.03;4.13;;;11.30;99.90;;;;;;5048539;28;20460;-78
2023/03/30 01:12:53;;;;;;;7.73;3.00;;;11.50;99.90;;;;;;5033471;28;20456;-78
2023/03/30 01:15:22;;;;;;;9.53;3.90;;;11.50;99.90;;;;;;5037986;28;20451;-78
2023/03/30 01:18:15;;;;;;;13.20;3.30;;;11.50;99.90;;;;;;5035713;28;20482;-78
2023/03/30 01:21:22;;;;;;;10.57;4.10;;;11.70;99.90;;;;;;5046412;28;21006;-78
2023/03/30 01:24:23;;;;;;;12.53;3.97;;;11.90;99.90;;;;;;5033225;28;20459;-78
2023/03/30 01:26:56;;;;;;;12.00;4.10;;;12.10;99.90;;;;;;5049829;28;20443;-78
2023/03/30 01:29:47;;;;;;;10.87;4.17;;;12.40;99.90;;;;;;5053492;28;20558;-77
2023/03/30 01:32:54;;;;;;;16.27;3.50;;;12.40;99.90;;;;;;5015635;28;20448;-78
2023/03/30 01:35:52;;;;;;;10.73;4.20;;;12.80;98.80;;;;;;5037393;28;20451;-78
2023/03/30 01:38:46;;;;;;;10.50;3.00;;;13.00;98.80;;;;;;5052768;28;20468;-78
2023/03/30 01:41:22;;;;;;;9.60;2.90;;;13.10;98.10;;;;;;5011263;28;20472;-78
2023/03/30 01:43:58;;;;;;;9.00;2.80;;;13.10;98.00;;;;;;5032928;28;20460;-78
2023/03/30 01:46:30;;;;;;;9.40;3.30;;;13.10;98.00;;;;;;5036209;28;20458;-78
2023/03/30 01:49:02;;;;;;;9.93;2.80;;;13.10;98.30;;;;;;5013508;28;20484;-78
2023/03/30 01:51:33;;;;;;;5.60;2.07;;;13.00;98.20;;;;;;5051931;28;20447;-78
2023/03/30 01:54:05;;;;;;;7.27;2.47;;;13.00;99.00;;;;;;5052367;28;20459;-78
2023/03/30 01:56:39;;;;;;;7.50;2.00;;;13.10;97.90;;;;;;5013439;28;20457;-78
2023/03/30 01:59:10;;;;;;;5.90;2.00;;;13.20;97.70;;;;;;5013076;28;20481;-78
2023/03/30 02:01:40;;;;;;;6.43;2.00;;;13.20;98.10;;;;;;5013221;28;20469;-78
2023/03/30 02:04:12;;;;;;;8.00;3.17;;;13.30;97.10;;;;;;5025088;28;20448;-78
2023/03/30 02:06:43;;;;;;;5.13;2.20;;;13.30;97.40;;;;;;5032771;28;20452;-78
2023/03/30 02:09:14;;;;;;;8.97;1.93;;;13.40;96.30;;;;;;5052617;28;20472;-78
2023/03/30 02:11:45;;;;;;;5.13;1.80;;;13.70;95.40;;;;;;5052082;28;20458;-78
2023/03/30 02:14:14;;;;;;;8.00;2.17;;;13.70;95.50;;;;;;5012719;28;20531;-78
2023/03/30 02:16:46;;;;;;;8.70;2.30;;;13.80;94.80;;;;;;5013789;28;20464;-79
2023/03/30 02:19:14;;;;;;;9.07;2.10;;;13.80;95.00;;;;;;5052525;28;20475;-78
2023/03/30 02:21:41;;;;;;;14.43;2.00;;;13.90;94.50;;;;;;5051647;28;20478;-78
2023/03/30 02:24:16;;;;;;;9.90;3.97;;;13.90;94.90;;;;;;5011277;28;20457;-79
2023/03/30 02:26:46;;;;;;;6.57;2.00;;;13.90;94.60;;;;;;5013695;28;20465;-79
2023/03/30 02:29:13;;;;;;;6.67;2.00;;;13.80;95.10;;;;;;5034222;28;20467;-78
2023/03/30 02:31:40;;;;;;;8.83;1.93;;;13.70;95.10;;;;;;5051673;28;20452;-78
2023/03/30 02:34:12;;;;;;;9.57;2.30;;;13.80;94.80;;;;;;5051097;28;20454;-78
2023/03/30 02:37:02;;;;;;;5.13;2.23;;;13.80;94.70;;;;;;5035314;28;20456;-78
2023/03/30 02:39:39;;;;;;;7.63;2.57;;;13.80;94.10;;;;;;5032385;28;20472;-78
2023/03/30 02:42:22;;;;;;;5.40;1.50;;;13.50;95.80;;;;;;5012369;28;20503;-78
2023/03/30 02:44:56;;;;;;;7.23;2.87;;;13.30;96.30;;;;;;4997100;28;20833;-78
2023/03/30 02:47:31;;;;;;;6.37;1.73;;;13.10;96.70;;;;;;5033618;28;20452;-78
2023/03/30 02:50:03;;;;;;;9.63;2.50;;;13.00;96.50;;;;;;5050160;28;20451;-78
2023/03/30 02:52:43;;;;;;;8.60;2.37;;;13.20;95.60;;;;;;5031969;28;20492;-78
2023/03/30 02:55:17;;;;;;;10.27;2.10;;;13.40;95.00;;;;;;5034157;28;20951;-78
2023/03/30 02:57:54;;;;;;;10.63;2.30;;;13.50;94.60;;;;;;5039007;28;20848;-78
2023/03/30 03:00:25;;;;;;;7.73;2.33;;;13.50;95.00;;;;;;5035019;28;20804;-78
2023/03/30 03:02:57;;;;;;;9.73;2.93;;;13.50;95.00;;;;;;5051355;28;20475;-78
2023/03/30 03:05:25;;;;;;;9.53;4.10;;;13.60;94.70;;;;;;5048410;28;20464;-78
2023/03/30 03:07:52;;;;;;;8.80;2.63;;;13.60;95.00;;;;;;5031101;28;20478;-78
2023/03/30 03:10:19;;;;;;;10.53;2.67;;;13.70;94.60;;;;;;5048259;28;20455;-78
2023/03/30 03:12:48;;;;;;;8.13;2.33;;;13.60;95.10;;;;;;5050990;28;20460;-78
2023/03/30 03:15:16;;;;;;;10.53;2.30;;;13.40;95.80;;;;;;5035124;28;20810;-78
2023/03/30 03:17:46;;;;;;;6.40;2.10;;;13.30;95.70;;;;;;5042977;28;20558;-78
2023/03/30 03:20:13;;;;;;;9.77;2.40;;;13.30;96.00;;;;;;5051408;28;20478;-78
2023/03/30 03:22:40;;;;;;;7.87;2.40;;;13.30;95.70;;;;;;5039945;28;20468;-78
2023/03/30 03:25:09;;;;;;;7.53;2.07;;;13.30;95.70;;;;;;5036936;28;20451;-78
2023/03/30 03:27:36;;;;;;;8.70;2.27;;;13.30;95.70;;;;;;5045147;28;20456;-78
2023/03/30 03:30:04;;;;;;;7.00;1.97;;;13.30;95.30;;;;;;5031356;28;20457;-78
2023/03/30 03:32:31;;;;;;;10.43;2.17;;;13.20;95.60;;;;;;5031368;28;20452;-78
2023/03/30 03:34:58;;;;;;;6.20;2.30;;;13.00;96.30;;;;;;5031259;28;20453;-78
2023/03/30 03:37:25;;;;;;;9.23;2.13;;;12.90;96.70;;;;;;5038705;28;20451;-78
2023/03/30 03:39:52;;;;;;;9.43;2.27;;;12.90;96.30;;;;;;5033462;28;20455;-78
2023/03/30 03:42:19;;;;;;;9.73;2.37;;;13.00;95.90;;;;;;5044681;28;20499;-79
2023/03/30 03:44:46;;;;;;;7.57;2.23;;;13.30;95.60;;;;;;5029768;28;20463;-78
2023/03/30 03:47:15;;;;;;;9.97;2.20;;;13.20;95.70;;;;;;5039137;28;20449;-78
2023/03/30 03:49:42;;;;;;;7.17;2.53;;;13.10;96.40;;;;;;5030735;28;20988;-78
2023/03/30 03:52:09;;;;;;;7.00;2.17;;;13.00;96.90;;;;;;5014054;28;20889;-76
2023/03/30 03:54:36;;;;;;;6.90;2.80;;;12.90;96.70;;;;;;5034621;28;20998;-78
2023/03/30 03:57:04;;;;;;;9.47;2.50;;;12.90;96.70;;;;;;5031174;28;20819;-78
2023/03/30 03:59:31;;;;;;;6.43;2.17;;;12.80;96.90;;;;;;5043061;28;20968;-78
2023/03/30 04:01:58;;;;;;;6.60;2.23;;;12.60;97.50;;;;;;5035891;28;20478;-78
2023/03/30 04:04:26;;;;;;;8.70;2.20;;;12.60;97.60;;;;;;5030175;28;20459;-78
2023/03/30 04:06:53;;;;;;;9.10;1.90;;;12.60;97.60;;;;;;5030981;28;20570;-78
2023/03/30 04:09:20;;;;;;;6.27;2.40;;;12.50;98.20;;;;;;5022653;28;20474;-78
2023/03/30 04:11:48;;;;;;;9.23;4.17;;;12.50;97.90;;;;;;5032907;28;20456;-78
2023/03/30 04:14:15;;;;;;;7.13;1.87;;;12.80;97.30;;;;;;5050555;28;20455;-78
2023/03/30 04:16:42;;;;;;;9.20;2.70;;;12.80;97.10;;;;;;5031870;28;20970;-78
2023/03/30 04:19:11;;;;;;;8.03;1.77;;;12.80;97.00;;;;;;5042536;28;20478;-78
2023/03/30 04:21:48;;;;;;;7.10;2.10;;;12.80;97.40;;;;;;5029709;28;20879;-78
2023/03/30 04:24:16;;;;;;;10.57;2.30;;;12.70;97.00;;;;;;5014444;28;20484;-78
2023/03/30 04:26:47;;;;;;;7.40;2.20;;;12.80;96.70;;;;;;5032434;28;20456;-78
2023/03/30 04:29:15;;;;;;;8.87;2.23;;;13.00;96.30;;;;;;5014521;28;20819;-79
2023/03/30 04:31:47;;;;;;;12.70;2.07;;;13.00;96.50;;;;;;5017856;28;20513;-79
2023/03/30 04:34:14;;;;;;;9.93;2.57;;;13.20;95.80;;;;;;5038737;28;20455;-77
2023/03/30 04:36:45;;;;;;;8.23;2.00;;;13.40;95.70;;;;;;5054308;28;20474;-78
2023/03/30 04:39:12;;;;;;;8.30;2.00;;;13.30;95.60;;;;;;5024154;28;20563;-78
2023/03/30 04:41:40;;;;;;;11.23;2.30;;;13.30;95.40;;;;;;5034387;28;20838;-78
2023/03/30 04:44:09;;;;;;;6.97;3.17;;;13.30;95.70;;;;;;5145845;23;20478;-78
2023/03/30 04:46:41;;;;;;;11.60;4.67;;;13.40;95.70;;;;;;5074159;28;20953;-78
2023/03/30 04:49:12;;;;;;;5.70;2.00;;;13.60;95.30;;;;;;5089454;28;20508;-78
2023/03/30 04:51:41;;;;;;;7.60;1.90;;;13.60;95.00;;;;;;5093005;28;20446;-77
2023/03/30 04:54:11;;;;;;;5.80;2.13;;;13.70;94.60;;;;;;5092861;28;20705;-77
2023/03/30 04:56:38;;;;;;;7.60;2.17;;;13.90;94.20;;;;;;5091137;28;20451;-77
2023/03/30 04:59:05;;;;;;;5.90;2.37;;;13.90;94.50;;;;;;5072465;28;20474;-77
2023/03/30 05:01:32;;;;;;;6.87;2.73;;;13.80;94.20;;;;;;5074727;28;20504;-78
2023/03/30 05:03:59;;;;;;;12.43;2.47;;;13.80;94.60;;;;;;5078830;28;20836;-78
2023/03/30 05:06:28;;;;;;;9.30;2.67;;;13.80;94.50;;;;;;5094077;28;20449;-77
2023/03/30 05:08:55;;;;;;;5.90;2.27;;;13.80;94.60;;;;;;5092628;28;20490;-77
2023/03/30 05:11:23;;;;;;;7.07;2.47;;;13.80;94.70;;;;;;5094167;28;20823;-77
2023/03/30 05:13:54;;;;;;;12.17;2.47;;;13.80;94.60;;;;;;5092262;28;20453;-77
2023/03/30 05:16:21;;;;;;;7.40;2.10;;;13.80;94.60;;;;;;5075958;28;20809;-76
2023/03/30 05:18:48;;;;;;;9.23;2.33;;;13.80;94.70;;;;;;5082888;28;20474;-77
2023/03/30 05:21:15;;;;;;;5.73;1.67;;;13.80;94.70;;;;;;5085709;28;20486;-77
2023/03/30 05:23:41;;;;;;;9.73;2.47;;;13.70;94.50;;;;;;5073794;28;20482;-77
2023/03/30 05:26:09;;;;;;;9.77;2.37;;;13.60;95.00;;;;;;5079091;28;20543;-77
2023/03/30 05:28:37;;;;;;;9.60;2.37;;;13.60;95.30;;;;;;5093577;28;20472;-77
2023/03/30 05:31:05;;;;;;;9.90;2.60;;;13.60;95.70;;;;;;5088794;28;20445;-79
2023/03/30 05:33:32;;;;;;;8.65;2.30;;;13.50;95.80;;;;;;5051446;28;20521;-76
2023/03/30 05:36:00;;;;;;;8.20;1.83;;;13.40;95.70;;;;;;5053585;28;20656;-76
2023/03/30 05:38:27;;;;;;;10.27;3.10;;;13.40;95.60;;;;;;5053576;28;20505;-77
2023/03/30 05:40:54;;;;;;;10.50;2.50;;;13.40;95.40;;;;;;5053396;28;20451;-77
2023/03/30 05:43:21;;;;;;;8.13;2.17;;;13.40;95.10;;;;;;5053131;28;20471;-76
2023/03/30 05:45:50;;;;;;;6.00;2.30;;;13.40;95.40;;;;;;5053083;28;20451;-76
2023/03/30 05:48:17;;;;;;;10.90;3.23;;;13.40;96.20;;;;;;5053035;28;20991;-76
2023/03/30 05:50:45;;;;;;;7.37;2.10;;;13.30;96.40;;;;;;5052073;28;20469;-77
2023/03/30 05:53:14;;;;;;;13.67;2.50;;;13.10;96.90;;;;;;5053107;28;20533;-77
2023/03/30 05:55:43;;;;;;;9.90;2.37;;;13.10;96.70;;;;;;5053110;28;20990;-78
2023/03/30 05:58:10;;;;;;;12.37;2.13;;;13.30;95.70;;;;;;5052837;28;20474;-77
2023/03/30 06:00:40;;;;;;;7.40;2.00;;;13.30;95.50;;;;;;5052716;28;20457;-77
2023/03/30 06:03:08;;;;;;;6.80;2.10;;;13.50;95.30;;;;;;5052609;28;20475;-77
2023/03/30 06:05:37;;;;;;;13.70;2.40;;;13.50;94.50;;;;;;5052735;28;20454;-76
2023/03/30 06:08:06;;;;;;;6.17;2.90;;;13.60;94.30;;;;;;5053130;28;20477;-77
2023/03/30 06:10:35;;;;;;;7.93;2.27;;;13.70;94.30;;;;;;5052616;28;20656;-77
2023/03/30 06:13:02;;;;;;;4.83;1.73;;;13.70;94.30;;;;;;5052518;28;21071;-77
2023/03/30 06:15:29;;;;;;;6.50;2.30;;;13.80;94.10;;;;;;5056848;28;20465;-76
2023/03/30 06:17:57;;;;;;;12.70;1.93;;;14.00;93.70;;;;;;5072890;28;20474;-76
2023/03/30 06:20:26;;;;;;;8.23;2.40;;;14.00;93.90;;;;;;5074366;28;20458;-78
2023/03/30 06:22:53;;;;;;;8.37;2.10;;;14.00;93.70;;;;;;5071522;28;20481;-77
2023/03/30 06:25:20;;;;;;;8.93;2.23;;;14.00;93.10;;;;;;5072376;28;20533;-77
2023/03/30 06:27:47;;;;;;;5.33;1.90;;;14.00;93.90;;;;;;5072342;28;20478;-76
2023/03/30 06:30:14;;;;;;;9.20;1.90;;;13.90;93.70;;;;;;5071243;28;20455;-77
2023/03/30 06:32:42;;;;;;;8.87;2.17;;;13.80;94.00;;;;;;5072303;28;20507;-76
2023/03/30 06:35:09;;;;;;;7.23;2.00;;;13.70;94.20;;;;;;5072425;28;20451;-76
2023/03/30 06:37:39;;;;;;;15.23;2.50;;;13.70;94.60;;;;;;5072383;28;20450;-76
2023/03/30 06:40:12;;;;;;;6.70;1.60;;;13.60;95.00;;;;;;5072277;28;20450;-78
2023/03/30 06:42:39;;;;;;;8.20;2.00;;;13.70;94.70;;;;;;5071245;28;20954;-76
2023/03/30 06:45:07;;;;;;;12.23;2.30;;;13.90;94.60;;;;;;5071960;28;20561;-77
2023/03/30 06:47:40;;;;;;;8.47;2.37;;;14.20;94.10;;;;;;5072188;28;20461;-77
2023/03/30 06:50:07;;;;;;;7.07;2.30;;;14.60;93.40;;;;;;5072200;28;20454;-77
2023/03/30 06:52:35;;;;;;;6.03;1.83;;;14.90;93.70;;;;;;5074417;28;20451;-77
2023/03/30 06:55:04;;;;;;;9.10;2.10;;;15.10;93.10;;;;;;5092151;28;20451;-77
2023/03/30 06:57:31;;;;;;;7.63;2.20;;;15.10;93.00;;;;;;5075236;28;20458;-77
2023/03/30 06:59:58;;;;;;;5.67;1.90;;;15.10;93.10;;;;;;5071920;28;20456;-77
2023/03/30 07:02:25;;;;;;;5.47;1.97;;;15.00;93.00;;;;;;5072680;28;20451;-77
2023/03/30 07:04:52;;;;;;;6.47;2.40;;;14.90;93.00;;;;;;5071749;28;20478;-76
2023/03/30 07:07:21;;;;;;;5.60;2.10;;;14.90;92.40;;;;;;5085794;28;20504;-77
2023/03/30 07:09:48;;;;;;;13.93;2.47;;;15.00;93.00;;;;;;5091554;28;20856;-77
2023/03/30 07:12:16;;;;;;;7.90;2.50;;;15.00;93.40;;;;;;5078632;28;20989;-76
2023/03/30 07:14:43;;;;;;;8.47;1.93;;;15.20;93.10;;;;;;5071847;28;20487;-76
2023/03/30 07:17:10;;;;;;;10.00;2.17;;;15.40;93.20;;;;;;5082628;28;20447;-77
2023/03/30 07:19:37;;;;;;;9.43;2.30;;;15.50;92.40;;;;;;5091647;28;20475;-76
2023/03/30 07:22:05;;;;;;;6.47;2.00;;;15.40;92.50;;;;;;5080213;28;21137;-76
2023/03/30 07:24:32;;;;;;;12.80;2.60;;;15.40;92.40;;;;;;5071789;28;20575;-76
2023/03/30 07:27:00;;;;;;;10.17;2.80;;;15.30;93.20;;;;;;5080259;28;20448;-77
2023/03/30 07:29:28;;;;;;;6.93;2.60;;;15.20;93.10;;;;;;5091307;28;21289;-79
2023/03/30 07:31:56;;;;;;;6.97;2.07;;;15.30;93.10;;;;;;5086320;28;20542;-79
2023/03/30 07:34:23;;;;;;;6.93;2.57;;;15.30;93.20;;;;;;5070894;28;20447;-79
2023/03/30 07:36:50;;;;;;;6.93;2.30;;;15.40;93.20;;;;;;5071774;28;20492;-77
2023/03/30 07:39:17;;;;;;;6.37;2.10;;;15.30;93.20;;;;;;5058765;28;20489;-76
2023/03/30 07:41:53;;;;;;;6.53;2.13;;;15.20;93.10;;;;;;5091352;28;20451;-80
2023/03/30 07:44:20;;;;;;;6.27;2.30;;;15.10;93.10;;;;;;5084537;28;20474;-77
2023/03/30 07:46:52;;;;;;;9.93;2.67;;;15.00;93.00;;;;;;5071216;28;20484;-77
2023/03/30 07:49:19;;;;;;;16.87;2.43;;;14.90;93.00;;;;;;5084301;28;20468;-78
2023/03/30 07:51:46;;;;;;;11.97;1.87;;;14.90;93.00;;;;;;5091313;28;20454;-76
2023/03/30 07:54:13;;;;;;;6.47;2.17;;;15.00;93.00;;;;;;5092659;28;20450;-76
2023/03/30 07:56:41;;;;;;;16.03;2.17;;;15.00;93.30;;;;;;5095739;28;20483;-77
2023/03/30 07:59:09;;;;;;;9.47;1.80;;;14.50;93.90;;;;;;5084131;28;20542;-76
2023/03/30 08:01:37;;;;;;;8.87;2.20;;;13.80;94.50;;;;;;5092854;28;20998;-77
2023/03/30 08:04:06;;;;;;;15.73;2.60;;;13.70;95.20;;;;;;5084862;28;20474;-77
2023/03/30 08:06:33;;;;;;;17.43;2.47;;;13.40;96.00;;;;;;5074857;28;20536;-77
2023/03/30 08:09:03;;;;;;;14.97;3.93;;;13.40;96.00;;;;;;5078440;28;20474;-77
2023/03/30 08:11:31;;;;;;;5.07;1.43;;;13.40;95.90;;;;;;5076264;28;20451;-77
2023/03/30 08:13:58;;;;;;;5.97;2.20;;;13.40;95.70;;;;;;5074581;28;20565;-77
2023/03/30 08:16:25;;;;;;;15.77;7.20;;;13.40;95.30;;;;;;5081621;28;20484;-77
2023/03/30 08:18:53;;;;;;;40.40;20.50;;;13.40;95.70;;;;;;5095140;28;20514;-77
2023/03/30 08:21:24;;;;;;;26.30;9.03;;;13.40;96.00;;;;;;5088200;28;20483;-77
2023/03/30 08:23:51;;;;;;;19.93;8.13;;;13.40;96.60;;;;;;5077921;28;21115;-78
2023/03/30 08:26:18;;;;;;;16.50;5.47;;;13.40;97.20;;;;;;5074935;28;20454;-77
2023/03/30 08:28:45;;;;;;;7.87;3.27;;;13.50;96.80;;;;;;5093412;28;20473;-76
2023/03/30 08:31:13;;;;;;;16.93;3.33;;;13.60;96.90;;;;;;5092996;28;20449;-77
2023/03/30 08:33:40;;;;;;;20.00;7.60;;;13.60;96.80;;;;;;5093434;28;20446;-77
2023/03/30 08:36:07;;;;;;;7.43;2.53;;;13.80;95.90;;;;;;5093293;28;20558;-77
2023/03/30 08:38:36;;;;;;;16.17;3.33;;;13.90;96.30;;;;;;5089962;28;20466;-76
2023/03/30 08:41:30;;;;;;;12.03;3.53;;;14.00;96.00;;;;;;5073676;28;20450;-76
2023/03/30 08:43:58;;;;;;;8.10;1.77;;;14.10;96.00;;;;;;5078179;28;20475;-76
2023/03/30 08:46:25;;;;;;;6.57;1.70;;;14.10;96.30;;;;;;5074460;28;20541;-77
2023/03/30 08:48:56;;;;;;;6.20;2.00;;;14.30;96.10;;;;;;5092484;28;20466;-76
2023/03/30 08:51:25;;;;;;;8.40;2.20;;;15.00;95.90;;;;;;5094451;28;20491;-77
2023/03/30 08:53:56;;;;;;;6.33;1.93;;;15.60;93.30;;;;;;5076342;28;20824;-76
2023/03/30 08:56:29;;;;;;;6.43;1.70;;;16.40;93.30;;;;;;5074266;28;20491;-77
2023/03/30 08:59:09;;;;;;;14.47;3.20;;;16.40;90.90;;;;;;5091780;28;20470;-77
2023/03/30 09:01:47;;;;;;;9.63;1.80;;;16.60;90.40;;;;;;5087182;28;20459;-77
2023/03/30 09:04:27;;;;;;;9.63;1.83;;;16.50;92.00;;;;;;5073669;28;20471;-87
2023/03/30 09:06:56;;;;;;;8.17;1.83;;;13.40;99.90;;;;;;5073758;28;20457;-78
2023/03/30 09:09:29;;;;;;;10.90;2.10;;;12.30;99.90;;;;;;5073498;28;20558;-78
2023/03/30 09:12:02;;;;;;;6.07;1.87;;;11.10;99.90;;;;;;5072695;28;20446;-78
2023/03/30 09:14:35;;;;;;;10.40;3.67;;;10.50;99.90;;;;;;5052841;28;20447;-78
2023/03/30 09:17:08;;;;;;;14.20;4.60;;;10.20;99.90;;;;;;5063983;28;20500;-78
2023/03/30 09:19:51;;;;;;;7.07;3.17;;;10.30;99.90;;;;;;5071931;28;20479;-78
2023/03/30 09:22:20;;;;;;;8.03;6.30;;;10.30;99.90;;;;;;5072036;28;20461;-78
2023/03/30 09:24:50;;;;;;;16.43;15.50;;;10.20;99.90;;;;;;5078940;28;20461;-78
2023/03/30 09:27:25;;;;;;;7.23;6.47;;;10.10;99.90;;;;;;5092192;28;20562;-76
2023/03/30 09:29:57;;;;;;;14.40;13.47;;;10.10;99.90;;;;;;5091832;28;20445;-76
2023/03/30 09:32:43;;;;;;;15.80;14.73;;;10.20;99.90;;;;;;5092284;28;20452;-77
2023/03/30 09:35:14;;;;;;;32.00;30.33;;;10.10;99.90;;;;;;5074059;28;20481;-76
2023/03/30 09:37:41;;;;;;;120.33;115.57;;;10.10;99.90;;;;;;5071814;28;21089;-76
2023/03/30 09:40:21;;;;;;;199.37;191.73;;;10.10;99.90;;;;;;5088752;28;20446;-76
2023/03/30 09:42:56;;;;;;;208.70;200.33;;;10.20;99.90;;;;;;5086665;28;20499;-76
2023/03/30 09:45:28;;;;;;;246.20;236.93;;;10.20;99.90;;;;;;5081408;28;20647;-76
2023/03/30 09:47:55;;;;;;;236.80;227.10;;;10.20;99.90;;;;;;5085696;28;20549;-76
2023/03/30 09:50:26;;;;;;;361.03;346.33;;;10.20;99.90;;;;;;5084921;28;20450;-76
2023/03/30 09:53:02;;;;;;;411.37;394.00;;;10.20;99.90;;;;;;5076663;28;20469;-77
2023/03/30 09:55:32;;;;;;;456.80;436.00;;;10.30;99.90;;;;;;5082987;28;20526;-76
2023/03/30 09:58:16;;;;;;;442.17;422.03;;;10.30;99.90;;;;;;5090639;28;20472;-76
2023/03/30 10:00:45;;;;;;;452.10;430.90;;;10.40;99.90;;;;;;5085066;28;20449;-76
2023/03/30 10:03:22;;;;;;;409.97;391.07;;;10.50;99.90;;;;;;5078292;28;20500;-76
2023/03/30 10:06:02;;;;;;;413.40;394.13;;;10.50;99.90;;;;;;5081101;28;20470;-76
2023/03/30 10:08:30;;;;;;;380.57;364.27;;;10.40;99.90;;;;;;5070597;28;20885;-76
2023/03/30 10:11:11;;;;;;;398.43;381.23;;;10.50;99.90;;;;;;5082734;28;20909;-77
2023/03/30 10:13:44;;;;;;;416.63;396.70;;;10.50;99.90;;;;;;5092016;28;20540;-75
2023/03/30 10:16:21;;;;;;;388.93;371.17;;;10.70;99.90;;;;;;5078683;28;20455;-76
2023/03/30 10:18:54;;;;;;;308.63;295.93;;;10.90;99.90;;;;;;5071966;28;20462;-76
2023/03/30 10:21:26;;;;;;;301.80;289.70;;;11.00;99.90;;;;;;5085614;28;20453;-76
2023/03/30 10:24:06;;;;;;;166.87;160.50;;;11.10;99.90;;;;;;5092026;28;20534;-76
2023/03/30 10:26:38;;;;;;;139.30;134.20;;;11.10;99.90;;;;;;5076406;28;20999;-76
2023/03/30 10:29:09;;;;;;;131.53;126.77;;;11.40;99.90;;;;;;5071414;28;20524;-76
2023/03/30 10:31:38;;;;;;;59.73;57.33;;;11.80;99.90;;;;;;5086172;28;20454;-76
2023/03/30 10:34:15;;;;;;;8.80;7.97;;;11.70;99.90;;;;;;5091471;28;20809;-75
2023/03/30 10:36:51;;;;;;;5.73;5.23;;;11.60;99.90;;;;;;5075352;28;20453;-75
2023/03/30 10:39:23;;;;;;;4.63;2.27;;;11.50;99.90;;;;;;5091337;28;20538;-79
2023/03/30 10:41:53;;;;;;;5.37;2.80;;;11.60;99.90;;;;;;5073610;28;20450;-76
2023/03/30 10:44:25;;;;;;;9.63;2.40;;;11.60;99.90;;;;;;5070839;28;20527;-75
2023/03/30 10:47:00;;;;;;;6.30;2.10;;;11.90;99.90;;;;;;5087940;28;20453;-76
2023/03/30 10:49:39;;;;;;;6.30;1.77;;;12.30;99.90;;;;;;5092133;28;20524;-76
2023/03/30 10:52:13;;;;;;;6.90;1.40;;;12.50;99.90;;;;;;5091644;28;20460;-76
2023/03/30 10:54:43;;;;;;;7.83;2.03;;;13.10;99.90;;;;;;5091732;28;20463;-76
2023/03/30 10:57:15;;;;;;;7.73;1.20;;;13.60;99.90;;;;;;5092099;28;20460;-77
2023/03/30 10:59:57;;;;;;;10.33;1.80;;;13.90;99.90;;;;;;5091674;28;20612;-79
2023/03/30 11:02:45;;;;;;;8.30;1.83;;;14.10;99.90;;;;;;5091914;28;20835;-77
2023/03/30 11:05:18;;;;;;;6.13;1.60;;;14.30;99.90;;;;;;5090982;28;20481;-77
2023/03/30 11:07:50;;;;;;;8.10;1.40;;;14.30;99.90;;;;;;5092235;28;20472;-77
2023/03/30 11:10:28;;;;;;;5.97;1.70;;;14.80;99.90;;;;;;5091946;28;20453;-77
2023/03/30 11:13:02;;;;;;;8.87;1.90;;;15.10;99.90;;;;;;5091562;28;20455;-78
2023/03/30 11:15:35;;;;;;;6.33;1.50;;;15.20;99.90;;;;;;5091737;28;20447;-77
2023/03/30 11:18:10;;;;;;;6.90;1.90;;;15.10;99.90;;;;;;5091602;28;20477;-77
2023/03/30 11:20:42;;;;;;;8.67;1.53;;;14.70;99.90;;;;;;5091749;28;20460;-77
2023/03/30 11:23:18;;;;;;;9.00;2.03;;;14.40;99.90;;;;;;5091312;28;20943;-77
2023/03/30 11:25:58;;;;;;;7.00;1.47;;;14.80;99.90;;;;;;5091473;28;20484;-76
2023/03/30 11:28:43;;;;;;;7.97;1.60;;;15.50;99.90;;;;;;5091358;28;20468;-77
2023/03/30 11:31:21;;;;;;;8.03;1.67;;;15.90;99.90;;;;;;5091536;28;20453;-76
2023/03/30 11:33:58;;;;;;;8.70;1.57;;;16.60;99.90;;;;;;5091290;28;20487;-77
2023/03/30 11:36:32;;;;;;;8.67;2.17;;;16.50;99.90;;;;;;5091584;28;20452;-77
2023/03/30 11:39:03;;;;;;;5.10;1.27;;;16.70;98.90;;;;;;5091558;28;20472;-77
2023/03/30 11:41:36;;;;;;;6.73;1.20;;;16.90;97.50;;;;;;5090481;28;20450;-78
2023/03/30 11:44:10;;;;;;;9.10;1.77;;;17.20;96.40;;;;;;5091163;28;20456;-77
2023/03/30 11:46:48;;;;;;;8.47;2.20;;;16.90;96.50;;;;;;5091400;28;20454;-76
2023/03/30 11:49:37;;;;;;;7.70;1.30;;;16.40;97.00;;;;;;5091851;28;20527;-79
2023/03/30 11:52:17;;;;;;;5.80;1.33;;;15.80;95.60;;;;;;5091373;28;20482;-78
2023/03/30 11:55:11;;;;;;;6.67;1.40;;;15.60;98.30;;;;;;5091515;28;20457;-76
2023/03/30 11:57:43;;;;;;;5.40;1.50;;;15.10;99.90;;;;;;5091417;28;20462;-78
2023/03/30 12:00:37;;;;;;;9.97;1.90;;;15.20;99.90;;;;;;5091417;28;20457;-78
2023/03/30 12:03:19;;;;;;;9.77;1.37;;;15.20;99.90;;;;;;5091031;28;20579;-78
2023/03/30 12:05:48;;;;;;;7.17;1.30;;;15.40;99.90;;;;;;5091378;28;20518;-79
2023/03/30 12:08:37;;;;;;;8.40;1.60;;;15.30;99.80;;;;;;5089989;28;20990;-76
2023/03/30 12:11:15;;;;;;;7.23;2.03;;;15.00;99.90;;;;;;5091513;28;20465;-79
2023/03/30 12:13:42;;;;;;;7.10;1.73;;;14.70;99.90;;;;;;5091014;28;20460;-78
2023/03/30 12:16:18;;;;;;;7.07;1.73;;;14.10;99.90;;;;;;5091286;28;20641;-78
2023/03/30 12:18:57;;;;;;;5.10;1.60;;;13.80;99.90;;;;;;5091626;28;20476;-78
2023/03/30 12:21:32;;;;;;;6.40;1.40;;;13.10;99.90;;;;;;5091221;28;20453;-78
2023/03/30 12:24:10;;;;;;;4.30;1.30;;;12.30;99.90;;;;;;5090982;28;20460;-79
2023/03/30 12:26:43;;;;;;;5.33;1.20;;;11.60;99.90;;;;;;5089974;28;20524;-78
2023/03/30 12:29:11;;;;;;;12.50;2.57;;;11.50;99.90;;;;;;5090611;28;20465;-79
2023/03/30 12:32:05;;;;;;;6.17;1.97;;;11.70;99.90;;;;;;5091224;28;20549;-78
2023/03/30 12:34:34;;;;;;;5.83;2.67;;;11.90;99.90;;;;;;5089696;28;20823;-78
2023/03/30 12:37:11;;;;;;;7.67;2.97;;;12.10;99.90;;;;;;5090592;28;20538;-79
2023/03/30 12:39:47;;;;;;;4.20;1.30;;;12.30;99.90;;;;;;5073336;28;20798;-78
2023/03/30 12:42:25;;;;;;;4.00;1.13;;;12.60;99.90;;;;;;5072874;28;20450;-78
2023/03/30 12:45:11;;;;;;;4.30;1.50;;;12.50;99.90;;;;;;5090627;28;21057;-78
2023/03/30 12:47:57;;;;;;;6.80;1.30;;;12.40;99.90;;;;;;5094285;28;20461;-77
2023/03/30 12:50:36;;;;;;;4.10;1.07;;;12.40;99.90;;;;;;5053930;28;20462;-78
2023/03/30 12:53:30;;;;;;;4.03;0.97;;;12.40;99.90;;;;;;5056008;28;20466;-78
2023/03/30 12:56:05;;;;;;;3.50;1.10;;;12.60;99.90;;;;;;5093726;28;20465;-78
2023/03/30 12:58:56;;;;;;;5.87;1.80;;;12.60;99.90;;;;;;5088865;28;20466;-77
2023/03/30 13:01:44;;;;;;;5.40;1.40;;;12.70;99.90;;;;;;5073375;28;20456;-77
2023/03/30 13:04:16;;;;;;;5.97;1.87;;;13.10;99.90;;;;;;5081906;28;20475;-78